sensor_id;sensor_type;location;lat;lon;timestamp;temperature;humidity
67182;DHT22;54114;53.524;49.396;2023-03-01T00:01:47;-1.30;79.90
67182;DHT22;54114;53.524;49.396;2023-03-01T00:04:14;-1.30;79.90
67182;DHT22;54114;53.524;49.396;2023-03-01T00:06:43;-1.20;79.90
67182;DHT22;54114;53.524;49.396;2023-03-01T00:09:14;-1.20;79.80
67182;DHT22;54114;53.524;49.396;2023-03-01T00:11:41;-1.20;79.70
67182;DHT22;54114;53.524;49.396;2023-03-01T00:14:10;-1.20;79.80
67182;DHT22;54114;53.524;49.396;2023-03-01T00:16:40;-1.20;79.90
67182;DHT22;54114;53.524;49.396;2023-03-01T00:19:15;-1.20;80.00
67182;DHT22;54114;53.524;49.396;2023-03-01T00:21:43;-1.20;80.20
67182;DHT22;54114;53.524;49.396;2023-03-01T00:24:10;-1.20;80.20
67182;DHT22;54114;53.524;49.396;2023-03-01T00:26:37;-1.10;80.40
67182;DHT22;54114;53.524;49.396;2023-03-01T00:29:06;-1.20;80.40
67182;DHT22;54114;53.524;49.396;2023-03-01T00:31:34;-1.10;80.50
67182;DHT22;54114;53.524;49.396;2023-03-01T00:34:03;-1.10;80.70
67182;DHT22;54114;53.524;49.396;2023-03-01T00:36:36;-1.10;80.70
67182;DHT22;54114;53.524;49.396;2023-03-01T00:39:05;-1.10;80.80
67182;DHT22;54114;53.524;49.396;2023-03-01T00:41:36;-1.10;80.80
67182;DHT22;54114;53.524;49.396;2023-03-01T00:44:06;-1.10;81.00
67182;DHT22;54114;53.524;49.396;2023-03-01T00:46:33;-1.10;80.90
67182;DHT22;54114;53.524;49.396;2023-03-01T00:49:02;-1.10;81.00
67182;DHT22;54114;53.524;49.396;2023-03-01T00:51:30;-1.10;81.20
67182;DHT22;54114;53.524;49.396;2023-03-01T00:53:59;-1.10;81.40
67182;DHT22;54114;53.524;49.396;2023-03-01T00:56:28;-1.10;81.40
67182;DHT22;54114;53.524;49.396;2023-03-01T00:59:00;-1.20;81.50
67182;DHT22;54114;53.524;49.396;2023-03-01T01:01:29;-1.10;81.70
67182;DHT22;54114;53.524;49.396;2023-03-01T01:04:03;-1.10;81.80
67182;DHT22;54114;53.524;49.396;2023-03-01T01:06:34;-1.10;82.00
67182;DHT22;54114;53.524;49.396;2023-03-01T01:09:06;-1.10;82.00
67182;DHT22;54114;53.524;49.396;2023-03-01T01:11:33;-1.10;82.00
67182;DHT22;54114;53.524;49.396;2023-03-01T01:14:03;-1.10;81.90
67182;DHT22;54114;53.524;49.396;2023-03-01T01:16:30;-1.00;82.00
67182;DHT22;54114;53.524;49.396;2023-03-01T01:18:57;-1.00;81.90
67182;DHT22;54114;53.524;49.396;2023-03-01T01:21:25;-1.00;81.90
67182;DHT22;54114;53.524;49.396;2023-03-01T01:23:53;-1.00;81.90
67182;DHT22;54114;53.524;49.396;2023-03-01T01:26:27;-1.00;81.90
67182;DHT22;54114;53.524;49.396;2023-03-01T01:28:55;-1.00;82.00
67182;DHT22;54114;53.524;49.396;2023-03-01T01:31:23;-0.90;82.00
67182;DHT22;54114;53.524;49.396;2023-03-01T01:33:53;-0.90;82.00
67182;DHT22;54114;53.524;49.396;2023-03-01T01:36:20;-1.00;82.00
67182;DHT22;54114;53.524;49.396;2023-03-01T01:38:50;-1.00;82.10
67182;DHT22;54114;53.524;49.396;2023-03-01T01:41:20;-1.00;82.20
67182;DHT22;54114;53.524;49.396;2023-03-01T01:44:35;-1.00;82.20
67182;DHT22;54114;53.524;49.396;2023-03-01T01:57:13;-1.00;82.80
67182;DHT22;54114;53.524;49.396;2023-03-01T01:59:45;-1.00;83.00
67182;DHT22;54114;53.524;49.396;2023-03-01T02:02:19;-1.00;83.00
67182;DHT22;54114;53.524;49.396;2023-03-01T02:04:49;-1.00;83.10
67182;DHT22;54114;53.524;49.396;2023-03-01T02:07:22;-1.00;83.20
67182;DHT22;54114;53.524;49.396;2023-03-01T02:09:51;-1.00;83.20
67182;DHT22;54114;53.524;49.396;2023-03-01T02:12:25;-0.90;83.30
67182;DHT22;54114;53.524;49.396;2023-03-01T02:14:54;-0.90;83.10
67182;DHT22;54114;53.524;49.396;2023-03-01T02:17:23;-0.90;83.10
67182;DHT22;54114;53.524;49.396;2023-03-01T02:20:00;-0.90;83.10
67182;DHT22;54114;53.524;49.396;2023-03-01T02:22:36;-0.80;83.10
67182;DHT22;54114;53.524;49.396;2023-03-01T02:25:26;-0.80;82.90
67182;DHT22;54114;53.524;49.396;2023-03-01T02:30:46;-0.80;82.80
67182;DHT22;54114;53.524;49.396;2023-03-01T02:33:34;-0.80;82.80
67182;DHT22;54114;53.524;49.396;2023-03-01T02:36:06;-0.80;82.80
67182;DHT22;54114;53.524;49.396;2023-03-01T02:38:38;-0.80;82.80
67182;DHT22;54114;53.524;49.396;2023-03-01T02:41:06;-0.80;82.70
67182;DHT22;54114;53.524;49.396;2023-03-01T02:43:34;-0.70;82.60
67182;DHT22;54114;53.524;49.396;2023-03-01T02:46:12;-0.70;82.50
67182;DHT22;54114;53.524;49.396;2023-03-01T02:48:53;-0.80;82.40
67182;DHT22;54114;53.524;49.396;2023-03-01T02:51:42;-0.70;82.50
67182;DHT22;54114;53.524;49.396;2023-03-01T02:54:36;-0.70;82.40
67182;DHT22;54114;53.524;49.396;2023-03-01T02:57:08;-0.70;82.40
67182;DHT22;54114;53.524;49.396;2023-03-01T02:59:39;-0.70;82.20
67182;DHT22;54114;53.524;49.396;2023-03-01T03:02:29;-0.60;82.30
67182;DHT22;54114;53.524;49.396;2023-03-01T03:05:17;-0.60;82.30
67182;DHT22;54114;53.524;49.396;2023-03-01T03:07:48;-0.60;82.30
67182;DHT22;54114;53.524;49.396;2023-03-01T03:10:22;-0.60;82.20
67182;DHT22;54114;53.524;49.396;2023-03-01T03:13:04;-0.60;82.20
67182;DHT22;54114;53.524;49.396;2023-03-01T03:15:35;-0.70;82.20
67182;DHT22;54114;53.524;49.396;2023-03-01T03:18:03;-0.60;82.30
67182;DHT22;54114;53.524;49.396;2023-03-01T03:20:31;-0.60;82.20
67182;DHT22;54114;53.524;49.396;2023-03-01T03:22:58;-0.60;82.10
67182;DHT22;54114;53.524;49.396;2023-03-01T03:25:28;-0.60;82.10
67182;DHT22;54114;53.524;49.396;2023-03-01T03:27:55;-0.60;82.10
67182;DHT22;54114;53.524;49.396;2023-03-01T03:30:25;-0.60;82.10
67182;DHT22;54114;53.524;49.396;2023-03-01T03:32:56;-0.50;82.10
67182;DHT22;54114;53.524;49.396;2023-03-01T03:35:26;-0.50;82.10
67182;DHT22;54114;53.524;49.396;2023-03-01T03:37:57;-0.50;82.20
67182;DHT22;54114;53.524;49.396;2023-03-01T03:40:38;-0.50;82.10
67182;DHT22;54114;53.524;49.396;2023-03-01T03:43:14;-0.50;82.20
67182;DHT22;54114;53.524;49.396;2023-03-01T03:45:48;-0.50;82.10
67182;DHT22;54114;53.524;49.396;2023-03-01T03:48:16;-0.50;82.30
67182;DHT22;54114;53.524;49.396;2023-03-01T03:50:50;-0.50;82.20
67182;DHT22;54114;53.524;49.396;2023-03-01T03:53:23;-0.50;82.20
67182;DHT22;54114;53.524;49.396;2023-03-01T03:55:51;-0.40;82.20
67182;DHT22;54114;53.524;49.396;2023-03-01T03:58:19;-0.40;82.20
67182;DHT22;54114;53.524;49.396;2023-03-01T04:00:50;-0.50;82.20
67182;DHT22;54114;53.524;49.396;2023-03-01T04:03:23;-0.40;82.30
67182;DHT22;54114;53.524;49.396;2023-03-01T04:05:53;-0.40;82.30
67182;DHT22;54114;53.524;49.396;2023-03-01T04:08:21;-0.40;82.30
67182;DHT22;54114;53.524;49.396;2023-03-01T04:10:52;-0.40;82.40
67182;DHT22;54114;53.524;49.396;2023-03-01T04:13:23;-0.40;82.40
67182;DHT22;54114;53.524;49.396;2023-03-01T04:15:54;-0.30;82.40
67182;DHT22;54114;53.524;49.396;2023-03-01T04:18:23;-0.30;82.30
67182;DHT22;54114;53.524;49.396;2023-03-01T04:20:55;-0.30;82.30
67182;DHT22;54114;53.524;49.396;2023-03-01T04:23:25;-0.30;82.30
67182;DHT22;54114;53.524;49.396;2023-03-01T04:25:52;-0.20;82.30
67182;DHT22;54114;53.524;49.396;2023-03-01T04:28:36;-0.30;82.10
67182;DHT22;54114;53.524;49.396;2023-03-01T04:31:13;-0.20;82.20
67182;DHT22;54114;53.524;49.396;2023-03-01T04:33:50;-0.20;82.20
67182;DHT22;54114;53.524;49.396;2023-03-01T04:36:20;-0.10;82.20
67182;DHT22;54114;53.524;49.396;2023-03-01T04:38:55;-0.10;82.10
67182;DHT22;54114;53.524;49.396;2023-03-01T04:41:23;-0.10;82.20
67182;DHT22;54114;53.524;49.396;2023-03-01T04:43:51;-0.10;82.40
67182;DHT22;54114;53.524;49.396;2023-03-01T04:46:19;0.00;82.40
67182;DHT22;54114;53.524;49.396;2023-03-01T04:48:47;0.10;82.50
67182;DHT22;54114;53.524;49.396;2023-03-01T04:51:16;0.20;82.20
67182;DHT22;54114;53.524;49.396;2023-03-01T04:53:45;0.30;82.00
67182;DHT22;54114;53.524;49.396;2023-03-01T04:56:13;0.40;81.90
67182;DHT22;54114;53.524;49.396;2023-03-01T04:58:40;0.60;81.80
67182;DHT22;54114;53.524;49.396;2023-03-01T05:01:15;0.80;81.40
67182;DHT22;54114;53.524;49.396;2023-03-01T05:03:48;1.00;81.00
67182;DHT22;54114;53.524;49.396;2023-03-01T05:06:19;1.30;80.00
67182;DHT22;54114;53.524;49.396;2023-03-01T05:08:47;1.30;79.50
67182;DHT22;54114;53.524;49.396;2023-03-01T05:11:13;1.30;79.30
67182;DHT22;54114;53.524;49.396;2023-03-01T05:13:40;1.30;79.40
67182;DHT22;54114;53.524;49.396;2023-03-01T05:16:10;1.40;79.40
67182;DHT22;54114;53.524;49.396;2023-03-01T05:18:37;1.40;79.30
67182;DHT22;54114;53.524;49.396;2023-03-01T05:21:11;1.40;79.10
67182;DHT22;54114;53.524;49.396;2023-03-01T05:23:41;1.50;79.50
67182;DHT22;54114;53.524;49.396;2023-03-01T05:26:11;1.70;79.60
67182;DHT22;54114;53.524;49.396;2023-03-01T05:28:38;1.80;79.30
67182;DHT22;54114;53.524;49.396;2023-03-01T05:31:07;1.90;79.00
67182;DHT22;54114;53.524;49.396;2023-03-01T05:33:41;2.00;78.30
67182;DHT22;54114;53.524;49.396;2023-03-01T05:36:09;2.10;78.00
67182;DHT22;54114;53.524;49.396;2023-03-01T05:38:36;2.20;77.50
67182;DHT22;54114;53.524;49.396;2023-03-01T05:41:03;2.30;77.70
67182;DHT22;54114;53.524;49.396;2023-03-01T05:43:31;2.40;77.50
67182;DHT22;54114;53.524;49.396;2023-03-01T05:46:01;2.50;76.40
67182;DHT22;54114;53.524;49.396;2023-03-01T05:48:30;2.50;75.60
67182;DHT22;54114;53.524;49.396;2023-03-01T05:51:01;2.50;75.50
67182;DHT22;54114;53.524;49.396;2023-03-01T05:53:28;2.60;75.70
67182;DHT22;54114;53.524;49.396;2023-03-01T05:55:57;2.80;75.20
67182;DHT22;54114;53.524;49.396;2023-03-01T05:58:24;2.90;73.90
67182;DHT22;54114;53.524;49.396;2023-03-01T06:00:50;3.30;73.60
67182;DHT22;54114;53.524;49.396;2023-03-01T06:03:17;3.50;70.90
67182;DHT22;54114;53.524;49.396;2023-03-01T06:05:46;3.70;70.10
67182;DHT22;54114;53.524;49.396;2023-03-01T06:08:15;3.80;70.00
67182;DHT22;54114;53.524;49.396;2023-03-01T06:10:42;3.90;70.00
67182;DHT22;54114;53.524;49.396;2023-03-01T06:13:10;4.10;69.10
67182;DHT22;54114;53.524;49.396;2023-03-01T06:15:40;4.10;66.20
67182;DHT22;54114;53.524;49.396;2023-03-01T06:18:08;4.10;66.10
67182;DHT22;54114;53.524;49.396;2023-03-01T06:20:35;4.00;66.30
67182;DHT22;54114;53.524;49.396;2023-03-01T06:23:02;3.90;66.90
67182;DHT22;54114;53.524;49.396;2023-03-01T06:25:29;3.90;66.60
67182;DHT22;54114;53.524;49.396;2023-03-01T06:27:55;3.90;65.90
67182;DHT22;54114;53.524;49.396;2023-03-01T06:30:24;3.90;65.00
67182;DHT22;54114;53.524;49.396;2023-03-01T06:32:54;4.00;65.50
67182;DHT22;54114;53.524;49.396;2023-03-01T06:35:31;4.10;64.50
67182;DHT22;54114;53.524;49.396;2023-03-01T06:38:02;4.10;63.00
67182;DHT22;54114;53.524;49.396;2023-03-01T06:40:30;4.10;62.70
67182;DHT22;54114;53.524;49.396;2023-03-01T06:43:01;4.00;62.80
67182;DHT22;54114;53.524;49.396;2023-03-01T06:45:30;3.90;62.70
67182;DHT22;54114;53.524;49.396;2023-03-01T06:48:06;3.70;62.30
67182;DHT22;54114;53.524;49.396;2023-03-01T06:50:34;3.70;62.30
67182;DHT22;54114;53.524;49.396;2023-03-01T06:53:03;3.60;61.40
67182;DHT22;54114;53.524;49.396;2023-03-01T06:55:30;3.40;60.20
67182;DHT22;54114;53.524;49.396;2023-03-01T06:58:01;3.30;61.30
67182;DHT22;54114;53.524;49.396;2023-03-01T07:00:29;3.20;61.90
67182;DHT22;54114;53.524;49.396;2023-03-01T07:02:59;3.10;62.30
67182;DHT22;54114;53.524;49.396;2023-03-01T07:05:28;3.10;63.80
67182;DHT22;54114;53.524;49.396;2023-03-01T07:07:55;3.20;64.30
67182;DHT22;54114;53.524;49.396;2023-03-01T07:10:22;3.40;64.10
67182;DHT22;54114;53.524;49.396;2023-03-01T07:12:54;3.60;64.10
67182;DHT22;54114;53.524;49.396;2023-03-01T07:15:25;3.80;63.20
67182;DHT22;54114;53.524;49.396;2023-03-01T07:17:52;3.90;62.30
67182;DHT22;54114;53.524;49.396;2023-03-01T07:20:19;3.90;61.30
67182;DHT22;54114;53.524;49.396;2023-03-01T07:22:54;4.00;61.40
67182;DHT22;54114;53.524;49.396;2023-03-01T07:25:24;4.20;61.40
67182;DHT22;54114;53.524;49.396;2023-03-01T07:27:52;4.50;61.20
67182;DHT22;54114;53.524;49.396;2023-03-01T07:30:20;4.70;60.50
67182;DHT22;54114;53.524;49.396;2023-03-01T07:32:47;5.00;59.10
67182;DHT22;54114;53.524;49.396;2023-03-01T07:35:16;5.10;58.00
67182;DHT22;54114;53.524;49.396;2023-03-01T07:37:45;5.20;56.70
67182;DHT22;54114;53.524;49.396;2023-03-01T07:40:12;5.20;55.40
67182;DHT22;54114;53.524;49.396;2023-03-01T07:42:39;5.10;55.00
67182;DHT22;54114;53.524;49.396;2023-03-01T07:45:06;5.00;54.20
67182;DHT22;54114;53.524;49.396;2023-03-01T07:47:33;4.90;53.90
67182;DHT22;54114;53.524;49.396;2023-03-01T07:50:00;4.80;54.30
67182;DHT22;54114;53.524;49.396;2023-03-01T07:52:30;4.80;54.20
67182;DHT22;54114;53.524;49.396;2023-03-01T07:54:57;4.80;53.40
67182;DHT22;54114;53.524;49.396;2023-03-01T07:57:24;5.00;52.90
67182;DHT22;54114;53.524;49.396;2023-03-01T07:59:52;5.20;53.60
67182;DHT22;54114;53.524;49.396;2023-03-01T08:02:19;5.20;54.10
67182;DHT22;54114;53.524;49.396;2023-03-01T08:04:48;5.40;53.30
67182;DHT22;54114;53.524;49.396;2023-03-01T08:07:15;5.70;53.10
67182;DHT22;54114;53.524;49.396;2023-03-01T08:09:44;5.70;51.20
67182;DHT22;54114;53.524;49.396;2023-03-01T08:12:11;5.70;50.70
67182;DHT22;54114;53.524;49.396;2023-03-01T08:14:40;5.50;50.00
67182;DHT22;54114;53.524;49.396;2023-03-01T08:17:07;5.30;51.10
67182;DHT22;54114;53.524;49.396;2023-03-01T08:19:35;5.10;50.00
67182;DHT22;54114;53.524;49.396;2023-03-01T08:22:02;4.80;49.70
67182;DHT22;54114;53.524;49.396;2023-03-01T08:24:31;4.60;51.30
67182;DHT22;54114;53.524;49.396;2023-03-01T08:27:00;4.30;52.10
67182;DHT22;54114;53.524;49.396;2023-03-01T08:29:30;4.10;52.90
67182;DHT22;54114;53.524;49.396;2023-03-01T08:31:57;4.00;53.10
67182;DHT22;54114;53.524;49.396;2023-03-01T08:34:24;4.00;53.70
67182;DHT22;54114;53.524;49.396;2023-03-01T08:36:51;3.90;52.90
67182;DHT22;54114;53.524;49.396;2023-03-01T08:39:22;3.90;53.30
67182;DHT22;54114;53.524;49.396;2023-03-01T08:41:49;3.80;53.60
67182;DHT22;54114;53.524;49.396;2023-03-01T08:44:16;3.90;53.00
67182;DHT22;54114;53.524;49.396;2023-03-01T08:46:43;4.00;52.90
67182;DHT22;54114;53.524;49.396;2023-03-01T08:49:14;4.20;51.20
67182;DHT22;54114;53.524;49.396;2023-03-01T08:51:42;4.40;50.70
67182;DHT22;54114;53.524;49.396;2023-03-01T08:54:15;4.60;51.20
67182;DHT22;54114;53.524;49.396;2023-03-01T08:56:44;4.70;49.50
67182;DHT22;54114;53.524;49.396;2023-03-01T08:59:17;4.90;49.50
67182;DHT22;54114;53.524;49.396;2023-03-01T09:01:45;5.00;50.10
67182;DHT22;54114;53.524;49.396;2023-03-01T09:04:12;5.20;49.90
67182;DHT22;54114;53.524;49.396;2023-03-01T09:06:40;5.50;49.10
67182;DHT22;54114;53.524;49.396;2023-03-01T09:09:17;5.70;48.90
67182;DHT22;54114;53.524;49.396;2023-03-01T09:11:44;6.00;49.20
67182;DHT22;54114;53.524;49.396;2023-03-01T09:14:13;6.20;47.00
67182;DHT22;54114;53.524;49.396;2023-03-01T09:16:40;6.40;45.70
67182;DHT22;54114;53.524;49.396;2023-03-01T09:19:09;6.40;45.00
67182;DHT22;54114;53.524;49.396;2023-03-01T09:21:37;6.50;44.30
67182;DHT22;54114;53.524;49.396;2023-03-01T09:24:04;6.70;44.80
67182;DHT22;54114;53.524;49.396;2023-03-01T09:26:31;6.80;43.50
67182;DHT22;54114;53.524;49.396;2023-03-01T09:29:00;6.50;44.80
67182;DHT22;54114;53.524;49.396;2023-03-01T09:31:26;6.10;45.70
67182;DHT22;54114;53.524;49.396;2023-03-01T09:33:53;5.70;46.00
67182;DHT22;54114;53.524;49.396;2023-03-01T09:36:23;5.40;46.40
67182;DHT22;54114;53.524;49.396;2023-03-01T09:38:54;5.30;46.30
67182;DHT22;54114;53.524;49.396;2023-03-01T09:47:28;5.10;47.20
67182;DHT22;54114;53.524;49.396;2023-03-01T09:50:13;5.20;46.90
67182;DHT22;54114;53.524;49.396;2023-03-01T09:55:31;5.20;46.40
67182;DHT22;54114;53.524;49.396;2023-03-01T10:01:41;4.90;47.60
67182;DHT22;54114;53.524;49.396;2023-03-01T10:04:36;5.00;47.80
67182;DHT22;54114;53.524;49.396;2023-03-01T10:09:38;4.60;47.90
67182;DHT22;54114;53.524;49.396;2023-03-01T10:12:18;4.50;46.50
67182;DHT22;54114;53.524;49.396;2023-03-01T10:18:24;4.70;46.20
67182;DHT22;54114;53.524;49.396;2023-03-01T10:20:53;4.80;47.30
67182;DHT22;54114;53.524;49.396;2023-03-01T10:23:26;5.10;48.80
67182;DHT22;54114;53.524;49.396;2023-03-01T10:29:04;5.10;50.30
67182;DHT22;54114;53.524;49.396;2023-03-01T10:34:19;4.90;50.30
67182;DHT22;54114;53.524;49.396;2023-03-01T10:37:14;4.70;50.20
67182;DHT22;54114;53.524;49.396;2023-03-01T10:40:03;4.50;51.30
67182;DHT22;54114;53.524;49.396;2023-03-01T10:42:48;4.20;50.10
67182;DHT22;54114;53.524;49.396;2023-03-01T10:45:30;4.30;49.50
67182;DHT22;54114;53.524;49.396;2023-03-01T10:51:06;3.90;49.50
67182;DHT22;54114;53.524;49.396;2023-03-01T10:53:51;3.70;49.10
67182;DHT22;54114;53.524;49.396;2023-03-01T10:56:18;3.50;49.00
67182;DHT22;54114;53.524;49.396;2023-03-01T10:59:05;3.40;49.40
67182;DHT22;54114;53.524;49.396;2023-03-01T11:01:36;3.40;50.00
67182;DHT22;54114;53.524;49.396;2023-03-01T11:06:36;3.50;48.90
67182;DHT22;54114;53.524;49.396;2023-03-01T11:09:21;3.70;47.80
67182;DHT22;54114;53.524;49.396;2023-03-01T11:11:53;3.90;47.70
67182;DHT22;54114;53.524;49.396;2023-03-01T11:14:26;4.00;46.60
67182;DHT22;54114;53.524;49.396;2023-03-01T11:17:05;3.90;46.00
67182;DHT22;54114;53.524;49.396;2023-03-01T11:22:55;4.00;45.40
67182;DHT22;54114;53.524;49.396;2023-03-01T11:25:35;4.10;44.70
67182;DHT22;54114;53.524;49.396;2023-03-01T11:28:06;4.20;45.10
67182;DHT22;54114;53.524;49.396;2023-03-01T11:30:58;4.20;43.90
67182;DHT22;54114;53.524;49.396;2023-03-01T11:36:10;4.10;44.90
67182;DHT22;54114;53.524;49.396;2023-03-01T11:38:43;4.00;45.10
67182;DHT22;54114;53.524;49.396;2023-03-01T11:44:21;4.10;45.30
67182;DHT22;54114;53.524;49.396;2023-03-01T11:47:21;4.50;44.10
67182;DHT22;54114;53.524;49.396;2023-03-01T11:56:38;5.80;40.50
67182;DHT22;54114;53.524;49.396;2023-03-01T11:59:19;6.00;39.60
67182;DHT22;54114;53.524;49.396;2023-03-01T12:02:16;6.30;38.70
67182;DHT22;54114;53.524;49.396;2023-03-01T12:05:14;6.70;38.70
67182;DHT22;54114;53.524;49.396;2023-03-01T12:22:57;6.10;46.50
67182;DHT22;54114;53.524;49.396;2023-03-01T12:26:07;5.80;45.30
67182;DHT22;54114;53.524;49.396;2023-03-01T12:28:45;5.60;45.20
67182;DHT22;54114;53.524;49.396;2023-03-01T12:31:47;5.30;47.30
67182;DHT22;54114;53.524;49.396;2023-03-01T12:37:21;4.50;48.40
67182;DHT22;54114;53.524;49.396;2023-03-01T12:41:21;4.20;50.30
67182;DHT22;54114;53.524;49.396;2023-03-01T12:44:03;4.10;49.00
67182;DHT22;54114;53.524;49.396;2023-03-01T12:49:59;3.70;47.60
67182;DHT22;54114;53.524;49.396;2023-03-01T12:52:46;3.60;47.90
67182;DHT22;54114;53.524;49.396;2023-03-01T12:55:34;3.60;48.50
67182;DHT22;54114;53.524;49.396;2023-03-01T13:04:21;4.10;46.90
67182;DHT22;54114;53.524;49.396;2023-03-01T13:13:22;3.80;44.90
67182;DHT22;54114;53.524;49.396;2023-03-01T13:15:51;3.70;45.40
67182;DHT22;54114;53.524;49.396;2023-03-01T13:21:00;3.70;45.00
67182;DHT22;54114;53.524;49.396;2023-03-01T13:23:31;3.70;43.80
67182;DHT22;54114;53.524;49.396;2023-03-01T13:26:03;3.40;43.20
67182;DHT22;54114;53.524;49.396;2023-03-01T13:34:06;2.70;44.10
67182;DHT22;54114;53.524;49.396;2023-03-01T13:37:22;2.40;44.40
67182;DHT22;54114;53.524;49.396;2023-03-01T13:39:59;2.20;44.50
67182;DHT22;54114;53.524;49.396;2023-03-01T13:42:41;1.90;44.60
67182;DHT22;54114;53.524;49.396;2023-03-01T13:45:40;1.70;44.60
67182;DHT22;54114;53.524;49.396;2023-03-01T13:48:15;1.50;45.30
67182;DHT22;54114;53.524;49.396;2023-03-01T13:51:04;1.30;45.30
67182;DHT22;54114;53.524;49.396;2023-03-01T13:53:36;1.20;45.40
67182;DHT22;54114;53.524;49.396;2023-03-01T13:56:15;1.00;45.70
67182;DHT22;54114;53.524;49.396;2023-03-01T13:58:55;0.90;46.10
67182;DHT22;54114;53.524;49.396;2023-03-01T14:01:24;0.80;46.00
67182;DHT22;54114;53.524;49.396;2023-03-01T14:03:58;0.70;46.00
67182;DHT22;54114;53.524;49.396;2023-03-01T14:06:30;0.60;46.20
67182;DHT22;54114;53.524;49.396;2023-03-01T14:09:22;0.50;46.40
67182;DHT22;54114;53.524;49.396;2023-03-01T14:20:30;0.30;47.30
67182;DHT22;54114;53.524;49.396;2023-03-01T14:23:08;0.20;47.50
67182;DHT22;54114;53.524;49.396;2023-03-01T14:25:47;0.20;47.90
67182;DHT22;54114;53.524;49.396;2023-03-01T14:30:55;0.20;48.60
67182;DHT22;54114;53.524;49.396;2023-03-01T14:33:27;0.10;48.80
67182;DHT22;54114;53.524;49.396;2023-03-01T14:36:12;0.00;49.10
67182;DHT22;54114;53.524;49.396;2023-03-01T14:38:46;-0.10;49.30
67182;DHT22;54114;53.524;49.396;2023-03-01T14:41:22;-0.20;49.60
67182;DHT22;54114;53.524;49.396;2023-03-01T14:46:44;-0.40;50.30
67182;DHT22;54114;53.524;49.396;2023-03-01T14:49:19;-0.40;50.70
67182;DHT22;54114;53.524;49.396;2023-03-01T14:52:02;-0.50;51.00
67182;DHT22;54114;53.524;49.396;2023-03-01T14:54:41;-0.50;51.10
67182;DHT22;54114;53.524;49.396;2023-03-01T14:57:35;-0.60;51.10
67182;DHT22;54114;53.524;49.396;2023-03-01T15:00:06;-0.60;51.20
67182;DHT22;54114;53.524;49.396;2023-03-01T15:02:39;-0.70;51.20
67182;DHT22;54114;53.524;49.396;2023-03-01T15:05:09;-0.60;51.40
67182;DHT22;54114;53.524;49.396;2023-03-01T15:07:41;-0.70;51.30
67182;DHT22;54114;53.524;49.396;2023-03-01T15:10:23;-0.60;51.50
67182;DHT22;54114;53.524;49.396;2023-03-01T15:12:51;-0.70;51.50
67182;DHT22;54114;53.524;49.396;2023-03-01T15:17:56;-0.70;51.60
67182;DHT22;54114;53.524;49.396;2023-03-01T15:20:32;-0.70;51.60
67182;DHT22;54114;53.524;49.396;2023-03-01T15:23:01;-0.90;51.70
67182;DHT22;54114;53.524;49.396;2023-03-01T15:25:29;-1.00;52.10
67182;DHT22;54114;53.524;49.396;2023-03-01T15:28:02;-1.00;52.60
67182;DHT22;54114;53.524;49.396;2023-03-01T15:30:35;-1.10;53.00
67182;DHT22;54114;53.524;49.396;2023-03-01T15:35:50;-1.20;53.80
67182;DHT22;54114;53.524;49.396;2023-03-01T15:38:51;-1.20;54.10
67182;DHT22;54114;53.524;49.396;2023-03-01T15:41:26;-1.20;54.50
67182;DHT22;54114;53.524;49.396;2023-03-01T15:43:58;-1.30;54.60
67182;DHT22;54114;53.524;49.396;2023-03-01T15:46:34;-1.30;54.90
67182;DHT22;54114;53.524;49.396;2023-03-01T15:49:24;-1.30;55.50
67182;DHT22;54114;53.524;49.396;2023-03-01T15:51:54;-1.20;55.80
67182;DHT22;54114;53.524;49.396;2023-03-01T15:54:24;-1.20;56.20
67182;DHT22;54114;53.524;49.396;2023-03-01T15:56:54;-1.20;56.40
67182;DHT22;54114;53.524;49.396;2023-03-01T15:59:21;-1.20;56.60
67182;DHT22;54114;53.524;49.396;2023-03-01T16:01:50;-1.10;56.70
67182;DHT22;54114;53.524;49.396;2023-03-01T16:04:20;-1.10;56.80
67182;DHT22;54114;53.524;49.396;2023-03-01T16:06:52;-1.10;56.90
67182;DHT22;54114;53.524;49.396;2023-03-01T16:09:25;-1.10;56.90
67182;DHT22;54114;53.524;49.396;2023-03-01T16:11:53;-1.10;57.00
67182;DHT22;54114;53.524;49.396;2023-03-01T16:14:22;-1.10;57.00
67182;DHT22;54114;53.524;49.396;2023-03-01T16:16:49;-1.10;57.60
67182;DHT22;54114;53.524;49.396;2023-03-01T16:19:18;-1.20;57.60
67182;DHT22;54114;53.524;49.396;2023-03-01T16:21:47;-1.20;57.70
67182;DHT22;54114;53.524;49.396;2023-03-01T16:24:18;-1.30;58.00
67182;DHT22;54114;53.524;49.396;2023-03-01T16:26:44;-1.30;58.20
67182;DHT22;54114;53.524;49.396;2023-03-01T16:29:14;-1.30;58.20
67182;DHT22;54114;53.524;49.396;2023-03-01T16:31:42;-1.30;58.20
67182;DHT22;54114;53.524;49.396;2023-03-01T16:34:10;-1.30;58.20
67182;DHT22;54114;53.524;49.396;2023-03-01T16:36:37;-1.30;58.30
67182;DHT22;54114;53.524;49.396;2023-03-01T16:39:09;-1.30;58.40
67182;DHT22;54114;53.524;49.396;2023-03-01T16:41:36;-1.30;58.40
67182;DHT22;54114;53.524;49.396;2023-03-01T16:44:05;-1.30;58.30
67182;DHT22;54114;53.524;49.396;2023-03-01T16:46:31;-1.30;58.50
67182;DHT22;54114;53.524;49.396;2023-03-01T16:49:00;-1.30;58.50
67182;DHT22;54114;53.524;49.396;2023-03-01T16:51:28;-1.30;58.50
67182;DHT22;54114;53.524;49.396;2023-03-01T16:53:56;-1.30;58.30
67182;DHT22;54114;53.524;49.396;2023-03-01T16:56:23;-1.30;58.40
67182;DHT22;54114;53.524;49.396;2023-03-01T16:58:49;-1.30;58.40
67182;DHT22;54114;53.524;49.396;2023-03-01T17:01:20;-1.30;58.30
67182;DHT22;54114;53.524;49.396;2023-03-01T17:03:50;-1.30;58.20
67182;DHT22;54114;53.524;49.396;2023-03-01T17:06:20;-1.40;58.10
67182;DHT22;54114;53.524;49.396;2023-03-01T17:08:50;-1.40;58.10
67182;DHT22;54114;53.524;49.396;2023-03-01T17:11:19;-1.40;58.10
67182;DHT22;54114;53.524;49.396;2023-03-01T17:13:46;-1.40;57.90
67182;DHT22;54114;53.524;49.396;2023-03-01T17:16:16;-1.40;57.80
67182;DHT22;54114;53.524;49.396;2023-03-01T17:18:45;-1.40;57.70
67182;DHT22;54114;53.524;49.396;2023-03-01T17:21:15;-1.40;57.60
67182;DHT22;54114;53.524;49.396;2023-03-01T17:23:43;-1.40;57.60
67182;DHT22;54114;53.524;49.396;2023-03-01T17:26:11;-1.30;57.40
67182;DHT22;54114;53.524;49.396;2023-03-01T17:28:38;-1.40;57.20
67182;DHT22;54114;53.524;49.396;2023-03-01T17:31:08;-1.40;57.20
67182;DHT22;54114;53.524;49.396;2023-03-01T17:33:38;-1.40;57.00
67182;DHT22;54114;53.524;49.396;2023-03-01T17:36:07;-1.40;56.90
67182;DHT22;54114;53.524;49.396;2023-03-01T17:38:33;-1.40;56.90
67182;DHT22;54114;53.524;49.396;2023-03-01T17:41:03;-1.40;56.90
67182;DHT22;54114;53.524;49.396;2023-03-01T17:43:30;-1.40;56.90
67182;DHT22;54114;53.524;49.396;2023-03-01T17:45:59;-1.40;56.70
67182;DHT22;54114;53.524;49.396;2023-03-01T17:48:26;-1.40;56.70
67182;DHT22;54114;53.524;49.396;2023-03-01T17:50:55;-1.40;56.60
67182;DHT22;54114;53.524;49.396;2023-03-01T17:53:22;-1.40;56.80
67182;DHT22;54114;53.524;49.396;2023-03-01T17:55:48;-1.40;56.90